Time;durP1;ratioP1;P1;durP2;ratioP2;P2;SDS_P1;SDS_P2;PMS_P1;PMS_P2;Temp;Humidity;BMP_temperature;BMP_pressure;BME280_temperature;BME280_humidity;BME280_pressure;Samples;Min_cycle;Max_cycle;Signal;HPM_P1;HPM_P2
2023/08/06 00:00:40;;;;;;;10.93;7.97;;;15.20;99.90;;;;;;7592638;19;20881;-73
2023/08/06 00:03:13;;;;;;;14.05;8.40;;;15.20;99.90;;;;;;7589949;19;20028;-73
2023/08/06 00:05:45;;;;;;;14.90;9.50;;;15.20;99.90;;;;;;7593994;19;20506;-72
2023/08/06 00:08:18;;;;;;;13.45;9.30;;;15.00;99.90;;;;;;7579658;19;20022;-73
2023/08/06 00:10:50;;;;;;;15.68;9.95;;;14.90;99.90;;;;;;7575702;19;20039;-73
2023/08/06 00:13:22;;;;;;;13.30;9.15;;;14.90;99.90;;;;;;7576880;19;20018;-73
2023/08/06 00:15:55;;;;;;;12.57;9.48;;;14.90;99.90;;;;;;7582677;19;20801;-73
2023/08/06 00:18:27;;;;;;;18.13;9.88;;;14.90;99.90;;;;;;7571739;19;20033;-73
2023/08/06 00:20:59;;;;;;;13.75;9.48;;;14.90;99.90;;;;;;7578849;19;20606;-73
2023/08/06 00:23:32;;;;;;;13.02;8.23;;;14.90;99.90;;;;;;7577324;19;20030;-73
2023/08/06 00:26:05;;;;;;;16.60;9.45;;;14.80;99.90;;;;;;7573887;19;20014;-72
2023/08/06 00:28:37;;;;;;;14.48;10.05;;;14.70;99.90;;;;;;7573092;19;20066;-72
2023/08/06 00:31:09;;;;;;;9.70;7.97;;;14.70;99.90;;;;;;7579150;19;20125;-73
2023/08/06 00:33:41;;;;;;;13.02;8.70;;;14.60;99.90;;;;;;7587906;19;20029;-73
2023/08/06 00:36:14;;;;;;;11.27;8.10;;;14.60;99.90;;;;;;7592578;19;20944;-73
2023/08/06 00:38:46;;;;;;;15.45;8.68;;;14.60;99.90;;;;;;7588949;19;20014;-73
2023/08/06 00:41:18;;;;;;;11.45;8.27;;;14.70;99.90;;;;;;7587586;19;20051;-74
2023/08/06 00:43:51;;;;;;;11.65;7.60;;;14.60;99.90;;;;;;7574591;19;20025;-73
2023/08/06 00:46:24;;;;;;;9.77;7.90;;;14.60;99.90;;;;;;7587111;19;20613;-73
2023/08/06 00:48:57;;;;;;;13.15;8.52;;;14.60;99.90;;;;;;7582915;19;20024;-72
2023/08/06 00:51:30;;;;;;;10.20;7.40;;;14.60;99.90;;;;;;7580126;19;20029;-73
2023/08/06 00:54:03;;;;;;;11.50;7.97;;;14.60;99.90;;;;;;7581269;19;20026;-74
2023/08/06 00:56:37;;;;;;;13.37;7.63;;;14.60;99.90;;;;;;7589896;19;20873;-75
2023/08/06 00:59:11;;;;;;;15.30;8.70;;;14.60;99.90;;;;;;7578941;19;20983;-73
2023/08/06 01:01:45;;;;;;;10.25;8.07;;;14.60;99.90;;;;;;7575806;19;20033;-73
2023/08/06 01:04:17;;;;;;;10.43;7.75;;;14.60;99.90;;;;;;7588166;19;20015;-76
2023/08/06 01:07:29;;;;;;;11.75;8.20;;;14.50;99.90;;;;;;7569069;19;20494;-73
2023/08/06 01:10:33;;;;;;;10.30;7.57;;;14.50;99.90;;;;;;7593745;19;20496;-73
2023/08/06 01:13:05;;;;;;;;;;;14.50;99.90;;;;;;7583213;19;20359;-73
2023/08/06 01:15:58;;;;;;;12.27;7.88;;;14.40;99.90;;;;;;7579255;19;19934;-73
2023/08/06 01:18:31;;;;;;;14.07;8.90;;;14.30;99.90;;;;;;7580253;19;20026;-73
2023/08/06 01:21:05;;;;;;;13.55;8.30;;;14.30;99.90;;;;;;7583496;19;20022;-73
2023/08/06 01:23:38;;;;;;;10.98;7.90;;;14.30;99.90;;;;;;7571971;19;20022;-73
2023/08/06 01:26:28;;;;;;;15.90;9.75;;;14.30;99.90;;;;;;7576488;19;20014;-73
2023/08/06 01:29:30;;;;;;;15.50;9.45;;;14.20;99.90;;;;;;7572398;19;20744;-73
2023/08/06 01:32:04;;;;;;;14.43;10.18;;;14.10;99.90;;;;;;7576589;19;20053;-73
2023/08/06 01:34:38;;;;;;;;;;;14.10;99.90;;;;;;7571438;19;20026;-72
2023/08/06 01:37:12;;;;;;;14.60;9.57;;;14.20;99.90;;;;;;7588274;19;20523;-73
2023/08/06 01:39:44;;;;;;;17.23;10.20;;;14.10;99.90;;;;;;7587015;19;20018;-73
2023/08/06 01:42:17;;;;;;;14.88;10.55;;;14.10;99.90;;;;;;7578713;19;20013;-72
2023/08/06 01:44:50;;;;;;;19.90;11.88;;;14.10;99.90;;;;;;7575154;19;20014;-73
2023/08/06 01:47:23;;;;;;;15.68;9.45;;;14.00;99.90;;;;;;7572628;19;20025;-72
2023/08/06 01:49:56;;;;;;;14.68;9.90;;;14.10;99.90;;;;;;7582114;19;20018;-72
2023/08/06 01:52:29;;;;;;;13.27;9.07;;;14.20;99.90;;;;;;7581095;19;20165;-72
2023/08/06 01:55:01;;;;;;;15.85;9.40;;;14.20;99.90;;;;;;7573782;19;20014;-73
2023/08/06 01:57:33;;;;;;;13.25;9.35;;;14.20;99.90;;;;;;7571301;19;20838;-72
2023/08/06 02:00:06;;;;;;;20.05;11.38;;;14.10;99.90;;;;;;7573285;19;20019;-72
2023/08/06 02:02:43;;;;;;;13.95;9.70;;;14.10;99.90;;;;;;7572956;19;20022;-72
2023/08/06 02:05:16;;;;;;;18.98;9.75;;;14.00;99.90;;;;;;7576766;19;20059;-72
2023/08/06 02:07:48;;;;;;;12.75;8.40;;;14.10;99.90;;;;;;7574925;19;20010;-73
2023/08/06 02:10:20;;;;;;;15.50;9.00;;;14.10;99.90;;;;;;7586049;19;20006;-73
2023/08/06 02:12:53;;;;;;;11.95;7.93;;;14.10;99.90;;;;;;7563639;19;20019;-74
2023/08/06 02:15:25;;;;;;;12.50;7.35;;;14.20;99.90;;;;;;7579519;19;20126;-73
2023/08/06 02:17:57;;;;;;;10.93;7.47;;;14.10;99.90;;;;;;7562375;19;20928;-73
2023/08/06 02:20:30;;;;;;;9.65;6.68;;;14.00;99.90;;;;;;7586461;19;20026;-73
2023/08/06 02:23:02;;;;;;;13.57;8.25;;;14.10;99.90;;;;;;7572675;19;20045;-73
2023/08/06 02:25:35;;;;;;;11.85;7.55;;;14.00;99.90;;;;;;7579817;19;20063;-72
2023/08/06 02:28:07;;;;;;;10.45;7.20;;;14.00;99.90;;;;;;7578804;19;20045;-72
2023/08/06 02:30:48;;;;;;;10.27;6.30;;;13.90;99.90;;;;;;7579998;19;20461;-72
2023/08/06 02:33:21;;;;;;;7.68;6.15;;;13.80;99.90;;;;;;7567269;19;20051;-73
2023/08/06 02:36:06;;;;;;;11.15;7.93;;;13.80;99.90;;;;;;7575399;19;20010;-73
2023/08/06 02:38:38;;;;;;;9.35;7.20;;;13.70;99.90;;;;;;7588464;19;20022;-74
2023/08/06 02:41:11;;;;;;;7.22;5.78;;;13.80;99.90;;;;;;7559139;19;20695;-75
2023/08/06 02:43:43;;;;;;;10.73;6.63;;;13.80;99.90;;;;;;7572311;19;20017;-75
2023/08/06 02:46:15;;;;;;;7.95;6.28;;;13.80;99.90;;;;;;7583491;19;20364;-76
2023/08/06 02:48:48;;;;;;;7.90;5.87;;;13.80;99.90;;;;;;7562521;19;20010;-72
2023/08/06 02:51:21;;;;;;;9.25;5.38;;;13.80;99.90;;;;;;7572563;19;20018;-72
2023/08/06 02:53:54;;;;;;;7.13;5.30;;;13.80;99.90;;;;;;7574368;19;20018;-75
2023/08/06 02:56:26;;;;;;;9.57;5.40;;;13.80;99.90;;;;;;7567960;19;20018;-72
2023/08/06 02:59:10;;;;;;;6.97;5.20;;;13.80;99.90;;;;;;7580360;19;20025;-76
2023/08/06 03:01:59;;;;;;;8.10;5.82;;;13.80;99.90;;;;;;7575080;19;20416;-75
2023/08/06 03:04:41;;;;;;;7.85;5.63;;;13.80;99.90;;;;;;7579195;19;20971;-72
2023/08/06 03:07:14;;;;;;;10.85;5.78;;;13.80;99.90;;;;;;7589302;19;20022;-75
2023/08/06 03:09:56;;;;;;;8.90;5.40;;;13.80;99.90;;;;;;7578550;19;21143;-73
2023/08/06 03:12:29;;;;;;;9.60;5.70;;;13.70;99.90;;;;;;7576694;19;23054;-72
2023/08/06 03:15:05;;;;;;;7.60;5.70;;;13.70;99.90;;;;;;7579295;19;20022;-75
2023/08/06 03:17:38;;;;;;;8.15;5.75;;;13.70;99.90;;;;;;7589545;19;20022;-72
2023/08/06 03:20:12;;;;;;;6.97;5.80;;;13.70;99.90;;;;;;7595071;19;20025;-73
2023/08/06 03:22:45;;;;;;;6.07;5.17;;;13.60;99.90;;;;;;7586855;19;20014;-72
2023/08/06 03:25:17;;;;;;;7.05;5.20;;;13.70;99.90;;;;;;7582608;19;20014;-76
2023/08/06 03:27:53;;;;;;;6.70;4.50;;;13.70;99.90;;;;;;7579853;19;20011;-75
2023/08/06 03:30:25;;;;;;;8.18;5.53;;;13.70;99.90;;;;;;7577650;19;20018;-73
2023/08/06 03:32:59;;;;;;;8.43;6.05;;;13.60;99.90;;;;;;7568606;19;21737;-75
2023/08/06 03:35:31;;;;;;;6.65;4.68;;;13.60;99.90;;;;;;7590746;19;20880;-76
2023/08/06 03:38:04;;;;;;;8.95;5.07;;;13.60;99.90;;;;;;7592810;19;20018;-73
2023/08/06 03:40:37;;;;;;;6.95;5.35;;;13.50;99.90;;;;;;7579251;19;20433;-75
2023/08/06 03:43:10;;;;;;;8.90;5.72;;;13.60;99.90;;;;;;7573353;19;20077;-72
2023/08/06 03:45:42;;;;;;;7.57;6.03;;;13.60;99.90;;;;;;7579086;19;20620;-75
2023/08/06 03:48:15;;;;;;;7.78;5.07;;;13.60;99.90;;;;;;7575284;19;20025;-73
2023/08/06 03:50:47;;;;;;;10.00;5.63;;;13.60;99.90;;;;;;7583226;19;20025;-73
2023/08/06 03:53:21;;;;;;;10.32;5.30;;;13.50;99.90;;;;;;7581981;19;20010;-74
2023/08/06 03:55:55;;;;;;;6.78;5.18;;;13.50;99.90;;;;;;7571425;19;20023;-74
2023/08/06 03:58:28;;;;;;;8.65;5.00;;;13.50;99.90;;;;;;7583494;19;20018;-73
2023/08/06 04:01:01;;;;;;;9.20;5.80;;;13.40;99.90;;;;;;7583690;19;20010;-72
2023/08/06 04:03:41;;;;;;;7.45;4.82;;;13.30;99.90;;;;;;7580958;19;20022;-75
2023/08/06 04:06:14;;;;;;;7.70;4.40;;;13.30;99.90;;;;;;7593519;19;22581;-72
2023/08/06 04:08:46;;;;;;;6.90;4.32;;;13.40;99.90;;;;;;7594361;19;20010;-74
2023/08/06 04:11:18;;;;;;;5.63;4.35;;;13.30;99.90;;;;;;7572084;19;20029;-75
2023/08/06 04:13:51;;;;;;;6.13;4.63;;;13.30;99.90;;;;;;7588607;19;20010;-73
2023/08/06 04:16:23;;;;;;;5.90;4.43;;;13.30;99.90;;;;;;7591320;19;20045;-73
2023/08/06 04:18:55;;;;;;;8.52;4.80;;;13.30;99.90;;;;;;7589919;19;20816;-76
2023/08/06 04:21:28;;;;;;;6.90;3.78;;;13.40;99.90;;;;;;7590985;19;20018;-72
2023/08/06 04:24:01;;;;;;;8.67;4.70;;;13.40;99.90;;;;;;7590046;19;20614;-72
2023/08/06 04:26:33;;;;;;;5.35;4.43;;;13.40;99.90;;;;;;7585516;19;21157;-76
2023/08/06 04:29:05;;;;;;;6.07;4.00;;;13.40;99.90;;;;;;7577289;19;20524;-75
2023/08/06 04:31:38;;;;;;;6.30;4.07;;;13.40;99.90;;;;;;7575910;19;20025;-73
2023/08/06 04:34:10;;;;;;;6.13;4.30;;;13.40;99.90;;;;;;7571469;19;20022;-72
2023/08/06 04:36:43;;;;;;;5.90;3.65;;;13.50;99.90;;;;;;7577772;19;20018;-71
2023/08/06 04:39:16;;;;;;;7.63;4.70;;;13.40;99.90;;;;;;7591432;19;20025;-73
2023/08/06 04:41:48;;;;;;;5.93;3.63;;;13.30;99.90;;;;;;7577219;19;20025;-75
2023/08/06 04:44:21;;;;;;;5.38;3.45;;;13.30;99.90;;;;;;7576938;19;22259;-76
2023/08/06 04:46:53;;;;;;;5.25;3.42;;;13.40;99.90;;;;;;7581413;19;20488;-73
2023/08/06 04:49:26;;;;;;;6.07;3.58;;;13.40;99.90;;;;;;7601249;19;20125;-72
2023/08/06 04:51:58;;;;;;;5.10;3.45;;;13.50;99.90;;;;;;7589447;19;20047;-73
2023/08/06 04:54:31;;;;;;;5.97;3.60;;;13.50;99.90;;;;;;7603114;19;21401;-73
2023/08/06 04:57:04;;;;;;;4.88;3.25;;;13.50;99.90;;;;;;7599405;19;20018;-73
2023/08/06 04:59:36;;;;;;;4.82;3.85;;;13.60;99.90;;;;;;7606450;19;20022;-73
2023/08/06 05:02:08;;;;;;;5.35;3.22;;;13.60;99.90;;;;;;7607251;19;20022;-72
2023/08/06 05:04:42;;;;;;;7.50;3.97;;;13.60;99.90;;;;;;7604456;19;20015;-72
2023/08/06 05:07:14;;;;;;;4.57;3.45;;;13.70;99.90;;;;;;7605240;19;21077;-74
2023/08/06 05:09:47;;;;;;;5.65;2.70;;;13.70;99.90;;;;;;7607247;19;20378;-74
2023/08/06 05:12:20;;;;;;;5.40;3.47;;;13.70;99.90;;;;;;7605074;19;20027;-74
2023/08/06 05:14:52;;;;;;;4.65;3.38;;;13.70;99.90;;;;;;7605743;19;20491;-73
2023/08/06 05:17:24;;;;;;;5.93;3.38;;;13.70;99.90;;;;;;7606107;19;20038;-73
2023/08/06 05:19:57;;;;;;;6.15;2.92;;;13.80;99.90;;;;;;7609763;19;20026;-74
2023/08/06 05:22:29;;;;;;;4.40;2.88;;;13.80;99.90;;;;;;7604169;19;20022;-73
2023/08/06 05:25:02;;;;;;;6.95;2.90;;;13.80;99.90;;;;;;7593927;19;20098;-73
2023/08/06 05:27:34;;;;;;;14.33;3.57;;;13.90;99.90;;;;;;7603492;19;20082;-72
2023/08/06 05:30:07;;;;;;;7.22;2.97;;;13.90;99.90;;;;;;7607534;19;20045;-73
2023/08/06 05:32:39;;;;;;;9.88;3.90;;;13.90;99.90;;;;;;7605567;19;20018;-73
2023/08/06 05:35:12;;;;;;;5.22;3.30;;;13.80;99.90;;;;;;7589950;19;20070;-74
2023/08/06 05:37:44;;;;;;;5.93;2.92;;;13.80;99.90;;;;;;7592683;19;20014;-73
2023/08/06 05:40:16;;;;;;;3.88;3.10;;;13.90;99.90;;;;;;7593215;19;20022;-73
2023/08/06 05:42:49;;;;;;;6.88;3.38;;;13.80;99.90;;;;;;7597520;19;20019;-74
2023/08/06 05:45:22;;;;;;;3.33;2.75;;;13.80;99.90;;;;;;7588028;19;20018;-75
2023/08/06 05:47:57;;;;;;;5.75;2.85;;;13.90;99.90;;;;;;7592332;19;20890;-74
2023/08/06 05:50:30;;;;;;;6.10;2.97;;;13.80;99.90;;;;;;7602200;19;20030;-74
2023/08/06 05:53:02;;;;;;;4.15;3.10;;;13.80;99.90;;;;;;7599876;19;20022;-73
2023/08/06 05:55:35;;;;;;;3.08;2.40;;;13.90;99.90;;;;;;7598408;19;20018;-75
2023/08/06 05:58:07;;;;;;;5.97;2.90;;;13.80;99.90;;;;;;7598198;19;20015;-74
2023/08/06 06:00:39;;;;;;;8.48;2.92;;;14.00;99.90;;;;;;7606905;19;20006;-75
2023/08/06 06:03:12;;;;;;;5.10;2.50;;;14.00;99.90;;;;;;7599718;19;20010;-75
2023/08/06 06:05:45;;;;;;;5.18;3.20;;;14.10;99.90;;;;;;7604357;19;20019;-75
2023/08/06 06:08:17;;;;;;;3.22;2.80;;;14.00;99.90;;;;;;7596078;19;20033;-74
2023/08/06 06:10:50;;;;;;;3.20;2.60;;;14.10;99.90;;;;;;7600624;19;20022;-74
2023/08/06 06:13:23;;;;;;;3.97;2.53;;;14.10;99.90;;;;;;7586510;19;20015;-73
2023/08/06 06:15:56;;;;;;;3.50;2.72;;;14.20;99.90;;;;;;7602937;19;20033;-74
2023/08/06 06:18:28;;;;;;;5.50;2.67;;;14.20;99.90;;;;;;7600401;19;20018;-73
2023/08/06 06:21:00;;;;;;;4.82;2.53;;;14.20;99.90;;;;;;7592959;19;20991;-75
2023/08/06 06:23:32;;;;;;;6.07;2.90;;;14.30;99.90;;;;;;7594486;19;20011;-75
2023/08/06 06:26:05;;;;;;;5.78;2.88;;;14.30;99.90;;;;;;7599679;19;20014;-74
2023/08/06 06:28:37;;;;;;;3.33;2.70;;;14.40;99.90;;;;;;7607924;19;20074;-75
2023/08/06 06:31:09;;;;;;;4.10;2.80;;;14.50;99.90;;;;;;7611268;19;20494;-74
2023/08/06 06:33:42;;;;;;;5.18;2.90;;;14.50;99.90;;;;;;7625684;19;20015;-75
2023/08/06 06:36:14;;;;;;;2.97;2.28;;;14.60;99.90;;;;;;7616597;19;20022;-75
2023/08/06 06:38:47;;;;;;;3.25;2.20;;;14.70;99.90;;;;;;7611408;19;20022;-74
2023/08/06 06:41:20;;;;;;;3.47;2.08;;;14.80;99.90;;;;;;7607774;19;20087;-74
2023/08/06 06:43:52;;;;;;;4.35;2.58;;;14.80;99.90;;;;;;7621227;19;20018;-74
2023/08/06 06:46:25;;;;;;;2.42;1.95;;;14.90;99.90;;;;;;7620738;19;20013;-72
2023/08/06 06:48:57;;;;;;;3.67;2.67;;;15.00;99.90;;;;;;7624303;19;20026;-72
2023/08/06 06:51:31;;;;;;;3.00;2.10;;;15.10;99.90;;;;;;7617806;19;20015;-75
2023/08/06 06:54:04;;;;;;;3.75;2.33;;;15.20;99.90;;;;;;7615639;19;20684;-73
2023/08/06 06:56:36;;;;;;;2.83;2.05;;;15.30;99.90;;;;;;7621303;19;20014;-74
2023/08/06 06:59:08;;;;;;;3.60;2.08;;;15.30;99.90;;;;;;7612056;19;20026;-74
2023/08/06 07:01:40;;;;;;;4.50;2.08;;;15.30;99.90;;;;;;7631985;19;20024;-74
2023/08/06 07:04:12;;;;;;;4.15;2.10;;;15.40;99.90;;;;;;7633614;19;20017;-74
2023/08/06 07:06:45;;;;;;;3.58;1.88;;;15.50;99.90;;;;;;7635952;19;20483;-74
2023/08/06 07:09:17;;;;;;;3.72;2.08;;;15.60;99.90;;;;;;7638741;19;20018;-73
2023/08/06 07:11:49;;;;;;;4.65;1.98;;;15.60;99.90;;;;;;7646262;19;20014;-73
2023/08/06 07:14:25;;;;;;;2.28;1.83;;;15.70;99.90;;;;;;7626658;19;20018;-75
2023/08/06 07:16:57;;;;;;;5.00;1.80;;;15.60;99.90;;;;;;7610559;19;20055;-75
2023/08/06 07:19:30;;;;;;;2.80;1.40;;;15.70;99.90;;;;;;7610195;19;20026;-73
2023/08/06 07:22:03;;;;;;;3.57;1.43;;;15.80;99.90;;;;;;7591782;19;20019;-73
2023/08/06 07:24:35;;;;;;;3.78;1.70;;;16.10;99.90;;;;;;7591089;19;20402;-73
2023/08/06 07:27:07;;;;;;;2.88;1.10;;;16.20;99.90;;;;;;7589203;19;20014;-75
2023/08/06 07:29:40;;;;;;;2.17;1.13;;;16.20;99.90;;;;;;7601342;19;20022;-74
2023/08/06 07:32:12;;;;;;;4.18;1.42;;;16.00;99.90;;;;;;7594606;19;20037;-73
2023/08/06 07:34:44;;;;;;;3.17;1.45;;;16.00;99.90;;;;;;7602607;19;20014;-73
2023/08/06 07:37:17;;;;;;;1.63;1.08;;;15.60;99.90;;;;;;7591716;19;20139;-74
2023/08/06 07:39:49;;;;;;;2.50;1.30;;;15.40;99.90;;;;;;7598257;19;22697;-75
2023/08/06 07:42:22;;;;;;;4.53;1.25;;;15.20;99.90;;;;;;7592786;19;20015;-74
2023/08/06 07:44:56;;;;;;;2.45;1.10;;;15.20;99.90;;;;;;7594694;19;20063;-75
2023/08/06 07:47:29;;;;;;;5.00;1.83;;;15.00;99.90;;;;;;7586856;19;20015;-74
2023/08/06 07:50:01;;;;;;;2.70;1.37;;;14.90;99.90;;;;;;7590582;19;20024;-73
2023/08/06 07:52:34;;;;;;;4.75;1.35;;;14.80;99.90;;;;;;7593725;19;20011;-75
2023/08/06 07:55:06;;;;;;;3.13;1.33;;;14.90;99.90;;;;;;7593913;19;20041;-74
2023/08/06 07:57:38;;;;;;;6.13;1.70;;;14.80;99.90;;;;;;7589748;19;20037;-74
2023/08/06 08:00:12;;;;;;;4.53;1.45;;;14.90;99.90;;;;;;7584937;19;20018;-74
2023/08/06 08:02:46;;;;;;;5.32;1.85;;;14.90;99.90;;;;;;7586666;19;20018;-74
2023/08/06 08:05:18;;;;;;;3.05;1.60;;;15.00;99.90;;;;;;7595829;19;20922;-71
2023/08/06 08:07:51;;;;;;;4.90;1.58;;;15.10;99.90;;;;;;7591933;19;20364;-74
2023/08/06 08:10:23;;;;;;;4.88;1.75;;;15.10;99.90;;;;;;7590150;19;20018;-74
2023/08/06 08:12:55;;;;;;;4.95;1.30;;;15.20;99.90;;;;;;7591522;19;20011;-74
2023/08/06 08:15:31;;;;;;;7.75;1.73;;;15.30;99.90;;;;;;7592757;19;20026;-73
2023/08/06 08:18:04;;;;;;;3.45;1.58;;;15.50;99.90;;;;;;7581708;19;20021;-74
2023/08/06 08:20:37;;;;;;;2.50;1.33;;;15.70;99.90;;;;;;7597663;19;20030;-72
2023/08/06 08:23:09;;;;;;;2.60;1.20;;;16.10;99.90;;;;;;7586587;19;20038;-72
2023/08/06 08:25:41;;;;;;;3.15;1.38;;;16.30;99.90;;;;;;7581248;19;20476;-73
2023/08/06 08:28:13;;;;;;;2.70;1.40;;;16.50;99.90;;;;;;7581690;19;20021;-73
2023/08/06 08:30:46;;;;;;;3.45;1.48;;;16.40;99.90;;;;;;7587189;19;21701;-72
2023/08/06 08:33:18;;;;;;;4.55;1.42;;;16.40;99.90;;;;;;7574606;19;20066;-72
2023/08/06 08:35:51;;;;;;;2.28;1.38;;;16.40;99.90;;;;;;7585580;19;20634;-73
2023/08/06 08:38:23;;;;;;;1.77;1.17;;;16.50;99.90;;;;;;7578776;19;20022;-73
2023/08/06 08:40:55;;;;;;;1.95;0.95;;;16.50;99.90;;;;;;7584719;19;20028;-74
2023/08/06 08:43:29;;;;;;;3.00;0.80;;;16.40;99.90;;;;;;7574056;19;20014;-73
2023/08/06 08:46:02;;;;;;;;;;;16.70;99.90;;;;;;7584865;19;20021;-74
2023/08/06 08:48:34;;;;;;;4.38;0.95;;;16.80;99.90;;;;;;7588842;19;20013;-74
2023/08/06 08:51:07;;;;;;;1.58;0.98;;;16.80;99.90;;;;;;7571943;19;20051;-74
2023/08/06 08:53:42;;;;;;;3.65;1.20;;;16.70;99.90;;;;;;7587147;19;20038;-74
2023/08/06 08:56:14;;;;;;;1.63;0.90;;;16.80;99.90;;;;;;7584696;19;20011;-72
2023/08/06 08:58:48;;;;;;;3.63;0.73;;;16.70;99.90;;;;;;7597762;19;20045;-73
2023/08/06 09:01:22;;;;;;;1.40;0.70;;;16.60;99.90;;;;;;7578583;19;20014;-74
2023/08/06 09:03:55;;;;;;;2.83;0.50;;;16.40;99.90;;;;;;7583562;19;20097;-73
2023/08/06 09:06:30;;;;;;;1.27;0.57;;;16.30;99.90;;;;;;7575472;19;20404;-74
2023/08/06 09:09:08;;;;;;;1.13;0.55;;;16.40;99.90;;;;;;7580047;19;20094;-72
2023/08/06 09:11:44;;;;;;;2.05;0.60;;;16.50;99.90;;;;;;7591066;19;20014;-72
2023/08/06 09:14:16;;;;;;;2.33;0.60;;;16.60;99.90;;;;;;7596271;19;20021;-73
2023/08/06 09:16:49;;;;;;;4.85;0.52;;;16.60;99.90;;;;;;7574974;19;20010;-74
2023/08/06 09:19:22;;;;;;;0.90;0.52;;;16.50;99.90;;;;;;7582361;19;20022;-73
2023/08/06 09:21:55;;;;;;;1.80;0.57;;;16.40;99.90;;;;;;7588878;19;20412;-73
2023/08/06 09:24:28;;;;;;;0.43;0.35;;;16.20;99.90;;;;;;7569181;19;20029;-73
2023/08/06 09:27:03;;;;;;;0.68;0.38;;;15.80;99.90;;;;;;7583645;19;20022;-73
2023/08/06 09:29:40;;;;;;;1.45;0.75;;;15.70;99.90;;;;;;7572826;19;20019;-73
2023/08/06 09:32:13;;;;;;;1.48;0.38;;;15.80;99.90;;;;;;7576149;19;20015;-72
2023/08/06 09:34:46;;;;;;;0.63;0.40;;;15.90;99.90;;;;;;7581747;19;20101;-73
2023/08/06 09:37:18;;;;;;;0.37;0.37;;;15.90;99.90;;;;;;7575378;19;20024;-72
2023/08/06 09:39:51;;;;;;;0.63;0.40;;;15.80;99.90;;;;;;7573633;19;20026;-73
2023/08/06 09:42:23;;;;;;;1.20;0.65;;;15.90;99.90;;;;;;7582739;19;20562;-72
2023/08/06 09:45:05;;;;;;;1.98;0.50;;;16.00;99.90;;;;;;7587358;19;20105;-72
2023/08/06 09:47:37;;;;;;;1.05;0.45;;;16.10;99.90;;;;;;7578386;19;20026;-73
2023/08/06 09:50:18;;;;;;;0.77;0.40;;;16.20;99.90;;;;;;7586883;19;20010;-73
2023/08/06 09:52:52;;;;;;;0.30;0.30;;;16.20;99.90;;;;;;7577220;19;20145;-71
2023/08/06 09:55:26;;;;;;;1.00;0.50;;;16.50;99.90;;;;;;7577246;19;20018;-73
2023/08/06 09:57:59;;;;;;;1.67;0.65;;;16.80;99.90;;;;;;7572236;19;20470;-73
2023/08/06 10:00:33;;;;;;;0.60;0.22;;;17.00;99.90;;;;;;7577436;19;20025;-73
2023/08/06 10:03:10;;;;;;;0.20;0.20;;;17.10;99.90;;;;;;7582622;19;20021;-73
2023/08/06 10:05:44;;;;;;;1.52;0.40;;;17.10;99.90;;;;;;7587492;19;20040;-73
2023/08/06 10:08:20;;;;;;;4.32;0.50;;;17.10;99.90;;;;;;7584605;19;20024;-72
2023/08/06 10:10:53;;;;;;;0.20;0.20;;;17.00;99.90;;;;;;7584446;19;20871;-72
2023/08/06 10:13:26;;;;;;;1.23;0.60;;;16.80;99.90;;;;;;7580424;19;20343;-72
2023/08/06 10:15:59;;;;;;;0.63;0.30;;;16.80;99.90;;;;;;7577597;19;20633;-72
2023/08/06 10:18:32;;;;;;;1.13;0.50;;;16.90;99.90;;;;;;7571680;19;20851;-73
2023/08/06 10:21:08;;;;;;;1.17;0.50;;;16.90;99.90;;;;;;7585322;19;20511;-73
2023/08/06 10:23:41;;;;;;;1.17;0.50;;;16.90;99.90;;;;;;7580324;19;20429;-73
2023/08/06 10:26:17;;;;;;;5.00;0.80;;;16.90;99.90;;;;;;7577913;19;21024;-73
2023/08/06 10:28:52;;;;;;;0.50;0.30;;;16.70;99.90;;;;;;7578687;19;20110;-74
2023/08/06 10:32:00;;;;;;;0.40;0.40;;;16.80;99.90;;;;;;7582949;19;20029;-74
2023/08/06 10:34:58;;;;;;;3.22;0.30;;;16.80;99.90;;;;;;7579860;19;20010;-73
2023/08/06 10:37:37;;;;;;;1.15;0.30;;;17.10;99.90;;;;;;7582760;19;20059;-73
2023/08/06 10:40:10;;;;;;;0.80;0.30;;;17.10;99.90;;;;;;7588418;19;20023;-73
2023/08/06 10:42:42;;;;;;;0.90;0.50;;;17.30;99.90;;;;;;7582846;19;20734;-73
2023/08/06 10:45:19;;;;;;;0.30;0.20;;;17.20;99.90;;;;;;7580568;19;20018;-73
2023/08/06 10:47:51;;;;;;;0.30;0.30;;;16.90;99.90;;;;;;7582121;19;20026;-72
2023/08/06 10:50:24;;;;;;;1.95;0.30;;;16.90;99.90;;;;;;7574754;19;20394;-72
2023/08/06 10:52:57;;;;;;;0.77;0.20;;;16.80;99.90;;;;;;7574641;19;20026;-71
2023/08/06 10:55:30;;;;;;;0.70;0.30;;;16.60;99.90;;;;;;7571551;19;20025;-74
2023/08/06 10:58:02;;;;;;;1.20;0.20;;;16.60;99.90;;;;;;7566686;19;20019;-73
2023/08/06 11:00:35;;;;;;;1.45;0.30;;;16.70;99.90;;;;;;7569526;19;25243;-74
2023/08/06 11:03:08;;;;;;;2.57;0.30;;;16.80;99.90;;;;;;7563429;19;20253;-72
2023/08/06 11:05:40;;;;;;;1.48;0.30;;;17.00;99.90;;;;;;7563664;19;20011;-75
2023/08/06 11:08:23;;;;;;;3.75;0.30;;;17.30;99.90;;;;;;7577976;19;20062;-72
2023/08/06 11:11:07;;;;;;;0.98;0.30;;;17.30;99.90;;;;;;7583595;19;20014;-73
2023/08/06 11:13:40;;;;;;;0.50;0.40;;;17.40;99.90;;;;;;7575917;19;21604;-73
2023/08/06 11:16:17;;;;;;;0.30;0.30;;;17.50;99.90;;;;;;7560778;19;20685;-73
2023/08/06 11:18:49;;;;;;;0.40;0.30;;;17.70;99.90;;;;;;7562270;19;21169;-72
2023/08/06 11:21:22;;;;;;;0.25;0.22;;;17.60;99.90;;;;;;7563504;19;20026;-73
2023/08/06 11:23:54;;;;;;;0.73;0.40;;;17.50;99.90;;;;;;7571142;19;20010;-72
2023/08/06 11:26:28;;;;;;;1.65;0.20;;;17.20;99.90;;;;;;7570324;19;20018;-73
2023/08/06 11:29:00;;;;;;;0.28;0.20;;;17.00;99.90;;;;;;7573845;19;20018;-72
2023/08/06 11:31:35;;;;;;;0.22;0.20;;;16.90;99.90;;;;;;7572980;19;20220;-72
2023/08/06 11:34:09;;;;;;;0.40;0.28;;;16.80;99.90;;;;;;7579259;19;20018;-72
2023/08/06 11:36:41;;;;;;;3.65;0.20;;;16.90;99.90;;;;;;7568343;19;20573;-73
2023/08/06 11:39:13;;;;;;;0.85;0.35;;;16.70;99.90;;;;;;7573604;19;20391;-73
2023/08/06 11:41:48;;;;;;;0.90;0.20;;;16.70;99.90;;;;;;7590052;19;20015;-71
2023/08/06 11:44:22;;;;;;;0.20;0.20;;;16.60;99.90;;;;;;7579782;19;20637;-73
2023/08/06 11:47:00;;;;;;;1.95;0.20;;;16.50;99.90;;;;;;7567359;19;20570;-71
2023/08/06 11:49:47;;;;;;;2.13;0.20;;;16.30;99.90;;;;;;7567714;19;20013;-72
2023/08/06 11:52:23;;;;;;;1.77;0.30;;;16.10;99.90;;;;;;7562893;19;20025;-73
2023/08/06 11:55:08;;;;;;;0.30;0.30;;;16.10;99.90;;;;;;7575298;19;20015;-74
2023/08/06 11:57:44;;;;;;;2.05;0.40;;;16.10;99.90;;;;;;7585481;19;20018;-75
2023/08/06 12:00:18;;;;;;;0.50;0.50;;;16.00;99.90;;;;;;7579648;19;20874;-73
2023/08/06 12:02:52;;;;;;;0.30;0.30;;;16.00;99.90;;;;;;7582257;19;20051;-74
2023/08/06 12:05:35;;;;;;;0.22;0.22;;;16.10;99.90;;;;;;7579271;19;20055;-72
2023/08/06 12:08:09;;;;;;;0.38;0.30;;;15.90;99.90;;;;;;7576927;19;20014;-73
2023/08/06 12:10:42;;;;;;;0.52;0.30;;;16.00;99.90;;;;;;7584124;19;20018;-73
2023/08/06 12:13:14;;;;;;;1.17;0.30;;;16.20;99.90;;;;;;7573211;19;20015;-72
2023/08/06 12:15:46;;;;;;;0.20;0.20;;;16.20;99.90;;;;;;7569608;19;20033;-73
2023/08/06 12:18:19;;;;;;;0.22;0.20;;;16.30;99.90;;;;;;7589013;19;20015;-73
2023/08/06 12:20:51;;;;;;;0.68;0.45;;;16.20;99.90;;;;;;7587971;19;20828;-73
2023/08/06 12:23:23;;;;;;;1.75;0.30;;;16.30;99.90;;;;;;7575309;19;20018;-74
2023/08/06 12:25:57;;;;;;;0.50;0.50;;;16.40;99.90;;;;;;7566011;19;20031;-74
2023/08/06 12:28:29;;;;;;;0.30;0.30;;;16.60;99.90;;;;;;7569184;19;20023;-73
2023/08/06 12:31:01;;;;;;;0.30;0.30;;;16.50;99.90;;;;;;7559743;19;20267;-72
2023/08/06 12:33:34;;;;;;;0.30;0.30;;;16.40;99.90;;;;;;7576150;19;20019;-73
2023/08/06 12:36:07;;;;;;;0.40;0.30;;;16.30;99.90;;;;;;7578396;19;20022;-72
2023/08/06 12:38:40;;;;;;;0.38;0.35;;;16.10;99.90;;;;;;7563969;19;20022;-72
2023/08/06 12:41:12;;;;;;;0.57;0.22;;;16.10;99.90;;;;;;7568118;19;20058;-74
2023/08/06 12:43:44;;;;;;;0.20;0.20;;;16.00;99.90;;;;;;7566660;19;20999;-73
2023/08/06 12:46:19;;;;;;;0.43;0.25;;;16.00;99.90;;;;;;7576676;19;20036;-74
2023/08/06 12:48:51;;;;;;;1.08;0.25;;;16.00;99.90;;;;;;7580783;19;20022;-72
2023/08/06 12:51:25;;;;;;;0.77;0.20;;;16.00;99.90;;;;;;7564368;19;20622;-72
2023/08/06 12:53:57;;;;;;;1.23;0.20;;;15.90;99.90;;;;;;7579831;19;20023;-73
2023/08/06 12:56:29;;;;;;;0.30;0.20;;;16.00;99.90;;;;;;7581408;19;20067;-74
2023/08/06 12:59:01;;;;;;;0.20;0.20;;;15.90;99.90;;;;;;7574032;19;21018;-72
2023/08/06 13:01:34;;;;;;;0.20;0.20;;;15.80;99.90;;;;;;7585186;19;20014;-72
2023/08/06 13:04:06;;;;;;;1.05;0.30;;;15.70;99.90;;;;;;7576726;19;20097;-73
2023/08/06 13:06:53;;;;;;;0.63;0.20;;;15.50;99.90;;;;;;7567162;19;20046;-73
2023/08/06 13:09:27;;;;;;;0.50;0.30;;;15.40;99.90;;;;;;7585182;19;20047;-72
2023/08/06 13:12:05;;;;;;;1.63;0.32;;;15.20;99.90;;;;;;7584300;19;20530;-73
2023/08/06 13:14:38;;;;;;;0.35;0.25;;;14.90;99.90;;;;;;7564966;19;20022;-73
2023/08/06 13:17:10;;;;;;;0.20;0.20;;;14.70;99.90;;;;;;7584859;19;20022;-72
2023/08/06 13:19:42;;;;;;;0.25;0.25;;;14.70;99.90;;;;;;7567263;19;20046;-73